Kununurra Airport
YPKU : now visible

Airfield :











YOU CAN JOIN US ON...

 
LOGIN :

Register | Disclaimer

   EN    FR    IT 

 









Legend :    VFR   Marginal VFR   IFR   Intensive IFR   Very Intensive IFR
Visi :
Ceiling :
>= 8 km
>= 3000ft
5 to 8 km
1000 to 3000 ft
1500m to 5 km
500 to 1000 ft
800 to 1500m
200 to 500 ft
< 800m
< 200 ft
Symbols :   Thunderstorms  Fog  Heavy snow  Heavy precipitations  Wind > 20 kt






- Airport Elevation : 145 ft
- IATA code : KNX


YPKU - Kununurra

CURRENT METAR :
  • 010700Z AUTO 15004KT 120V290 9999 // NCD 35/11 Q1009 RF00.0/000.0

EXPIRED METARs :
  • 010630Z AUTO 15003KT 9999 // NCD 35/11 Q1009 RF00.0/000.0
  • 010600Z AUTO 16006KT 9999 // NCD 35/10 Q1009 RF00.0/000.0
  • 010530Z AUTO 19007KT 9999 // NCD 35/11 Q1010 RF00.0/000.0
  • 010500Z AUTO 15007KT 120V190 9999 // NCD 35/11 Q1010
  • 010430Z AUTO 18006KT 9999 // NCD 34/11 Q1011 RF00.0/000.0

TAF TAF YPKU
Valid from the 01 at 02:00 until the 01 at 14:00 UTC


010125Z 0102/0114 13006KT CAVOK
FM010700 05007KT CAVOK
FM011100 31005KT CAVOK
YBBB FIR / Oceania



MET'MAP, your aeronautical weather chart ! - Copyright ORBIFLY December 2007 - Disclaimer

ORBIFLY MET'MAP TEAM :

Programming & Development : Alexandra Zaïnal
Concept & original design : Baudouin d'Aumeries
Assistance for programming : Marc-Olivier Méhu
Technical & hardware support : Manuel Goepfert

Contact : metmap@orbifly.com




SOURCES & CREDITS :

   NOAA       Earth
Advisory